Time;durP1;ratioP1;P1;durP2;ratioP2;P2;SDS_P1;SDS_P2;PMS_P1;PMS_P2;Temp;Humidity;BMP_temperature;BMP_pressure;BME280_temperature;BME280_humidity;BME280_pressure;Samples;Min_cycle;Max_cycle;Signal;HPM_P1;HPM_P2
2022/06/07 00:00:10;;;;;;;3.6;3.2;;;;;;;18.11;95.72949;937.8506;;;;
2022/06/07 00:02:35;;;;;;;4;3.6;;;;;;;18.14;95.50293;937.8074;;;;
2022/06/07 00:05:03;;;;;;;4.8;3.4;;;;;;;18.12;95.8584;937.7706;;;;
2022/06/07 00:07:33;;;;;;;3.7;3.4;;;;;;;18.11;95.96094;937.8571;;;;
2022/06/07 00:10:00;;;;;;;4;3.4;;;;;;;18.11;96.30957;937.9045;;;;
2022/06/07 00:12:25;;;;;;;3.8;3.4;;;;;;;18.03;96.59375;937.8804;;;;
2022/06/07 00:14:50;;;;;;;3.4;3.1;;;;;;;18.05;96.55371;937.9959;;;;
2022/06/07 00:17:18;;;;;;;3.3;3;;;;;;;18.05;96.50488;938.0025;;;;
2022/06/07 00:19:43;;;;;;;4.1;2.9;;;;;;;18.09;96.54004;938.0547;;;;
2022/06/07 00:22:08;;;;;;;2.8;2.5;;;;;;;18.09;96.23828;938.0709;;;;
2022/06/07 00:24:33;;;;;;;2.7;2.5;;;;;;;18.14;95.72363;938.0418;;;;
2022/06/07 00:26:59;;;;;;;2.9;2.6;;;;;;;18.16;95.04199;938.0212;;;;
2022/06/07 00:29:24;;;;;;;3.8;2.8;;;;;;;18.03;95.18652;937.9941;;;;
2022/06/07 00:31:49;;;;;;;3.7;2.4;;;;;;;17.96;95.7207;937.991;;;;
2022/06/07 00:34:14;;;;;;;2.8;2.6;;;;;;;17.97;95.94336;937.9764;;;;
2022/06/07 00:36:40;;;;;;;4.1;3;;;;;;;18;95.36816;938.0836;;;;
2022/06/07 00:39:06;;;;;;;3.2;2.6;;;;;;;17.96;96.17188;938.1273;;;;
2022/06/07 00:42:04;;;;;;;4.5;2.6;;;;;;;18.05;96.27441;938.1555;;;;
2022/06/07 00:44:29;;;;;;;3;2.7;;;;;;;18.03;96.89844;938.1736;;;;
2022/06/07 00:46:54;;;;;;;3.6;3.3;;;;;;;18.02;96.96387;938.1559;;;;
2022/06/07 00:49:19;;;;;;;4.2;3;;;;;;;18.03;96.62891;938.1753;;;;
2022/06/07 00:51:46;;;;;;;3.4;3.1;;;;;;;18.05;95.86816;938.133;;;;
2022/06/07 00:54:10;;;;;;;3.3;2.9;;;;;;;17.79;95.93848;938.039;;;;
2022/06/07 00:56:35;;;;;;;2.9;2.6;;;;;;;17.6;97.34766;937.9356;;;;
2022/06/07 00:59:28;;;;;;;4.3;2.9;;;;;;;17.72;97.15332;937.9581;;;;
2022/06/07 01:01:56;;;;;;;3.1;2.7;;;;;;;17.71;97.02148;937.8514;;;;
2022/06/07 01:04:23;;;;;;;6.4;3.1;;;;;;;17.74;97.18066;937.8395;;;;
2022/06/07 01:11:40;;;;;;;3.6;3.3;;;;;;;17.56;99.31055;937.6361;;;;
2022/06/07 01:14:06;;;;;;;3.8;3.1;;;;;;;17.56;99.13867;937.6746;;;;
2022/06/07 01:16:31;;;;;;;5.8;3.2;;;;;;;17.62;98.23242;937.6631;;;;
2022/06/07 01:18:58;;;;;;;3.9;3;;;;;;;17.66;97.13965;937.6321;;;;
2022/06/07 01:21:22;;;;;;;4.2;3.2;;;;;;;17.52;97.08594;937.6335;;;;
2022/06/07 01:23:47;;;;;;;4.8;3.4;;;;;;;17.49;97.24121;937.6648;;;;
2022/06/07 01:26:21;;;;;;;5.3;3.2;;;;;;;17.47;97.46875;937.6135;;;;
2022/06/07 01:28:50;;;;;;;3.4;3.1;;;;;;;17.42;97.69043;937.6144;;;;
2022/06/07 01:31:14;;;;;;;3.8;3.2;;;;;;;17.4;98.04395;937.5783;;;;
2022/06/07 01:33:39;;;;;;;4.1;3.4;;;;;;;17.38;98.20508;937.5801;;;;
2022/06/07 01:36:04;;;;;;;3.9;3.4;;;;;;;17.37;97.94531;937.5764;;;;
2022/06/07 01:38:30;;;;;;;3.4;3.1;;;;;;;17.51;97.11914;937.5653;;;;
2022/06/07 01:43:20;;;;;;;3.3;3;;;;;;;17.51;96.80371;937.6089;;;;
2022/06/07 01:45:45;;;;;;;3.7;3.3;;;;;;;17.37;98.18945;937.5997;;;;
2022/06/07 01:48:10;;;;;;;4;3.3;;;;;;;17.44;98.07813;937.5706;;;;
2022/06/07 01:50:35;;;;;;;4.8;4.4;;;;;;;17.38;96.71973;937.5005;;;;
2022/06/07 01:53:00;;;;;;;5.7;4.8;;;;;;;17.34;95.91992;937.4384;;;;
2022/06/07 01:55:25;;;;;;;5.7;5;;;;;;;17.39;94.98047;937.3917;;;;
2022/06/07 01:57:51;;;;;;;5.6;5;;;;;;;17.38;94.45801;937.3628;;;;
2022/06/07 02:00:19;;;;;;;5.8;5.3;;;;;;;17.43;93.73535;937.3439;;;;
2022/06/07 02:02:46;;;;;;;6.4;5.3;;;;;;;17.37;93.49219;937.3808;;;;
2022/06/07 02:05:15;;;;;;;6.4;5.1;;;;;;;17.34;92.99707;937.3459;;;;
2022/06/07 02:07:39;;;;;;;6;4.9;;;;;;;17.14;93.77832;937.3226;;;;
2022/06/07 02:10:04;;;;;;;5.5;5;;;;;;;17.09;94.21875;937.2623;;;;
2022/06/07 02:16:10;;;;;;;5.8;4.8;;;;;;;17.25;92.3418;937.2534;;;;
2022/06/07 02:18:35;;;;;;;5.4;4.8;;;;;;;17.29;92.17383;937.223;;;;
2022/06/07 02:21:01;;;;;;;5.6;5.1;;;;;;;17.29;91.46875;937.1537;;;;
2022/06/07 02:23:26;;;;;;;5.2;4.7;;;;;;;17.25;91.95801;937.2108;;;;
2022/06/07 02:25:51;;;;;;;5.8;5.1;;;;;;;17.25;92.27441;937.1133;;;;
2022/06/07 02:28:16;;;;;;;5.6;5;;;;;;;17.27;91.70605;937.0302;;;;
2022/06/07 02:30:42;;;;;;;5.5;4.8;;;;;;;17.24;90.44824;937.0798;;;;
2022/06/07 02:33:07;;;;;;;6.1;5.2;;;;;;;17.24;90.18359;937.0491;;;;
2022/06/07 02:35:32;;;;;;;5.6;5;;;;;;;17.15;90.97656;937.1269;;;;
2022/06/07 02:37:59;;;;;;;6.6;5.3;;;;;;;17.03;92.09961;937.0525;;;;
2022/06/07 02:40:24;;;;;;;5.6;5;;;;;;;17.07;92.18652;937.0391;;;;
2022/06/07 02:42:50;;;;;;;6;5.4;;;;;;;17.04;92.7041;936.9349;;;;
2022/06/07 02:45:15;;;;;;;7.2;5.9;;;;;;;17.05;92.39355;936.9742;;;;
2022/06/07 02:47:40;;;;;;;6.8;6.1;;;;;;;17.02;93.5;936.9601;;;;
2022/06/07 02:50:05;;;;;;;6.7;6;;;;;;;16.94;94.21289;936.9459;;;;
2022/06/07 02:52:30;;;;;;;6.7;6;;;;;;;17.1;94.30566;936.9138;;;;
2022/06/07 02:54:56;;;;;;;6.2;5.6;;;;;;;17;94.9082;936.8943;;;;
2022/06/07 02:57:21;;;;;;;8.5;5.9;;;;;;;16.98;95.56445;936.8287;;;;
2022/06/07 02:59:48;;;;;;;7;6.3;;;;;;;16.99;95.39453;936.7891;;;;
2022/06/07 03:02:13;;;;;;;6.5;5.8;;;;;;;16.97;95.30762;936.7943;;;;
2022/06/07 03:04:38;;;;;;;7.2;5.9;;;;;;;17;95.18652;936.8242;;;;
2022/06/07 03:07:04;;;;;;;6.5;5.8;;;;;;;17.02;94.96973;936.8629;;;;
2022/06/07 03:09:29;;;;;;;6.5;5.8;;;;;;;17.02;94.23047;936.7977;;;;
2022/06/07 03:11:56;;;;;;;9.1;6.5;;;;;;;16.98;93.93066;936.8488;;;;
2022/06/07 03:14:21;;;;;;;7.6;6.6;;;;;;;16.88;94.74121;936.8803;;;;
2022/06/07 03:16:47;;;;;;;6.7;6;;;;;;;16.91;94.41113;936.8606;;;;
2022/06/07 03:19:12;;;;;;;7;6.3;;;;;;;16.96;94.23926;936.9497;;;;
2022/06/07 03:21:39;;;;;;;7.7;6;;;;;;;16.94;94.60645;936.9147;;;;
2022/06/07 03:27:57;;;;;;;8.2;6.5;;;;;;;16.98;94.23242;936.9501;;;;
2022/06/07 03:30:23;;;;;;;7.3;6.6;;;;;;;16.88;95.2998;936.8714;;;;
2022/06/07 03:32:48;;;;;;;6.8;6.1;;;;;;;16.92;95.06445;936.8596;;;;
2022/06/07 03:35:13;;;;;;;7.4;6.2;;;;;;;16.9;94.9209;936.851;;;;
2022/06/07 03:37:38;;;;;;;8.3;7.2;;;;;;;16.82;96.03906;936.8524;;;;
2022/06/07 03:40:03;;;;;;;8.2;6.1;;;;;;;16.82;96.29395;936.8706;;;;
2022/06/07 03:42:29;;;;;;;6.8;6.1;;;;;;;16.9;96.48535;936.8583;;;;
2022/06/07 03:44:58;;;;;;;7.4;6.3;;;;;;;16.95;96.03418;936.8508;;;;
2022/06/07 03:47:24;;;;;;;6.8;6.1;;;;;;;16.98;95.50684;936.807;;;;
2022/06/07 03:49:49;;;;;;;7.2;6.1;;;;;;;16.93;95.7959;936.8834;;;;
2022/06/07 03:52:15;;;;;;;8.9;6.5;;;;;;;16.95;95.28027;936.8486;;;;
2022/06/07 03:54:40;;;;;;;7.4;6.4;;;;;;;17;94.58398;936.8557;;;;
2022/06/07 03:57:06;;;;;;;7.2;6.5;;;;;;;17.02;94.64746;936.8781;;;;
2022/06/07 03:59:31;;;;;;;7.3;6.5;;;;;;;16.98;94.68359;936.8793;;;;
2022/06/07 04:02:31;;;;;;;7.3;6.4;;;;;;;16.99;94.7207;936.8326;;;;
2022/06/07 04:04:57;;;;;;;7;6.3;;;;;;;16.92;95.05469;936.8096;;;;
2022/06/07 04:09:47;;;;;;;7.4;6.6;;;;;;;16.92;95.40234;936.7734;;;;
2022/06/07 04:12:12;;;;;;;7.7;6.9;;;;;;;16.92;95.2959;936.6891;;;;
2022/06/07 04:14:37;;;;;;;9.3;7;;;;;;;16.94;94.8252;936.7417;;;;
2022/06/07 04:17:03;;;;;;;7.5;6.7;;;;;;;16.99;94.59277;936.7119;;;;
2022/06/07 04:19:28;;;;;;;7.5;6.6;;;;;;;17;94.4209;936.7214;;;;
2022/06/07 04:21:53;;;;;;;8.2;6.7;;;;;;;17.02;94.42676;936.7341;;;;
2022/06/07 04:24:18;;;;;;;8;7.2;;;;;;;17.1;94.09473;936.6169;;;;
2022/06/07 04:26:44;;;;;;;7.6;6.1;;;;;;;17.13;93.5;936.7508;;;;
2022/06/07 04:29:09;;;;;;;8.3;6.6;;;;;;;17.12;93.11523;936.6736;;;;
2022/06/07 04:31:34;;;;;;;6.8;6.1;;;;;;;17.19;92.61914;936.7045;;;;
2022/06/07 04:34:01;;;;;;;6.8;6.1;;;;;;;17.18;92.39648;936.6886;;;;
2022/06/07 04:36:26;;;;;;;6.4;5.8;;;;;;;17.09;92.92188;936.8013;;;;
2022/06/07 04:38:51;;;;;;;8;6.8;;;;;;;17;93.45898;936.7126;;;;
2022/06/07 04:41:16;;;;;;;7;6.3;;;;;;;17.01;93.46094;936.8113;;;;
2022/06/07 04:43:43;;;;;;;9;6.9;;;;;;;17.07;93.27539;936.875;;;;
2022/06/07 04:46:53;;;;;;;7.9;7.1;;;;;;;16.9;93.69336;936.8141;;;;
2022/06/07 04:49:19;;;;;;;7.7;6.7;;;;;;;16.87;94.37109;936.8611;;;;
2022/06/07 04:51:44;;;;;;;8.3;7.4;;;;;;;16.95;94.33008;936.8284;;;;
2022/06/07 04:54:11;;;;;;;7.8;7;;;;;;;16.98;94.13965;936.8528;;;;
2022/06/07 04:56:35;;;;;;;8.5;7;;;;;;;16.98;94.13965;936.8875;;;;
2022/06/07 05:02:49;;;;;;;8.8;7.7;;;;;;;16.87;94.17383;936.8467;;;;
2022/06/07 05:05:15;;;;;;;8.5;7.6;;;;;;;16.89;94.69922;936.7845;;;;
2022/06/07 05:07:40;;;;;;;9.8;7.6;;;;;;;16.91;94.59863;936.78;;;;
2022/06/07 05:10:08;;;;;;;9.2;7.4;;;;;;;16.83;94.58105;936.7936;;;;
2022/06/07 05:12:33;;;;;;;8.7;6.5;;;;;;;16.93;94.50977;936.704;;;;
2022/06/07 05:14:59;;;;;;;7.8;7;;;;;;;16.99;93.83789;936.7626;;;;
2022/06/07 05:17:24;;;;;;;8.3;7.1;;;;;;;17.01;93.5791;936.7823;;;;
2022/06/07 05:19:49;;;;;;;7.8;6.7;;;;;;;17.02;93.91699;936.7463;;;;
2022/06/07 05:22:16;;;;;;;8.3;7;;;;;;;17.1;93.66602;936.6766;;;;
2022/06/07 05:24:42;;;;;;;9.1;7.2;;;;;;;17.14;93.47656;936.7586;;;;
2022/06/07 05:27:16;;;;;;;8.9;7;;;;;;;17.13;92.9668;936.7603;;;;
2022/06/07 05:29:41;;;;;;;7.9;7.1;;;;;;;17.17;92.31543;936.7853;;;;
2022/06/07 05:32:06;;;;;;;8.3;7.3;;;;;;;17.1;92.71777;936.7762;;;;
2022/06/07 05:34:34;;;;;;;7;6.3;;;;;;;16.99;93.31836;936.7062;;;;
2022/06/07 05:36:59;;;;;;;7.7;6.9;;;;;;;17.02;93.70898;936.6658;;;;
2022/06/07 05:39:24;;;;;;;8.1;6.9;;;;;;;17.17;93.05566;936.6334;;;;
2022/06/07 05:41:49;;;;;;;7.8;7.1;;;;;;;17.17;93.26563;936.6453;;;;
2022/06/07 05:44:15;;;;;;;7.8;7;;;;;;;17.19;92.42383;936.6288;;;;
2022/06/07 05:46:39;;;;;;;8;7.2;;;;;;;17.27;92.49707;936.5745;;;;
2022/06/07 05:49:05;;;;;;;8.4;7.3;;;;;;;17.32;92.19531;936.65;;;;
2022/06/07 05:51:31;;;;;;;7.9;7;;;;;;;17.39;91.69824;936.5916;;;;
2022/06/07 05:53:56;;;;;;;7.7;6.4;;;;;;;17.51;91.80566;936.6435;;;;
2022/06/07 05:56:22;;;;;;;7.3;6.6;;;;;;;17.55;91.55762;936.5895;;;;
2022/06/07 05:58:48;;;;;;;8.5;6.7;;;;;;;17.63;90.86719;936.6051;;;;
2022/06/07 06:01:15;;;;;;;6.9;6.2;;;;;;;17.7;90.17383;936.6007;;;;
2022/06/07 06:03:40;;;;;;;8.6;6.5;;;;;;;17.72;90.34961;936.5754;;;;
2022/06/07 06:06:05;;;;;;;7.2;6.5;;;;;;;17.79;89.69336;936.5949;;;;
2022/06/07 06:10:55;;;;;;;7;5.6;;;;;;;17.83;89.61719;936.5823;;;;
2022/06/07 06:13:20;;;;;;;6.6;6;;;;;;;17.86;88.41895;936.6082;;;;
2022/06/07 06:15:45;;;;;;;7;5.9;;;;;;;17.71;89.85059;936.5852;;;;
2022/06/07 06:18:21;;;;;;;7.7;6;;;;;;;17.78;89.92383;936.6208;;;;
2022/06/07 06:20:45;;;;;;;8.2;6.2;;;;;;;17.82;89.55957;936.6155;;;;
2022/06/07 06:23:11;;;;;;;8.2;6.4;;;;;;;17.87;90.05664;936.6612;;;;
2022/06/07 06:25:38;;;;;;;6.7;6;;;;;;;17.93;88.74512;936.6566;;;;
2022/06/07 06:28:03;;;;;;;6.8;5.8;;;;;;;18.01;87.7627;936.688;;;;
2022/06/07 06:30:29;;;;;;;7;5.9;;;;;;;18.06;87.99414;936.7299;;;;
2022/06/07 06:32:55;;;;;;;8.4;6.3;;;;;;;18.09;88.74316;936.7646;;;;
2022/06/07 06:35:20;;;;;;;6.8;5.5;;;;;;;18.18;87.49512;936.7706;;;;
2022/06/07 06:37:45;;;;;;;6.8;6.1;;;;;;;17.97;87.32617;936.7573;;;;
2022/06/07 06:40:12;;;;;;;6.7;6.1;;;;;;;18.09;87.29102;936.7308;;;;
2022/06/07 06:42:37;;;;;;;6.3;5.7;;;;;;;18.14;86.7793;936.7466;;;;
2022/06/07 06:45:02;;;;;;;5.8;5.2;;;;;;;17.98;88.02246;936.7128;;;;
2022/06/07 06:47:27;;;;;;;7.2;6;;;;;;;18.13;87.19336;936.6936;;;;
2022/06/07 06:49:53;;;;;;;6.2;5.3;;;;;;;18.04;86.44434;936.6989;;;;
2022/06/07 06:52:20;;;;;;;6.1;5;;;;;;;17.94;87.45996;936.741;;;;
2022/06/07 06:54:46;;;;;;;5.3;4.7;;;;;;;17.96;86.06836;936.7697;;;;
2022/06/07 06:57:11;;;;;;;6.9;4.7;;;;;;;;;;;;;
2022/06/07 06:59:36;;;;;;;5.9;5;;;;;;;;;;;;;
2022/06/07 07:02:01;;;;;;;5.3;4.6;;;;;;;;;;;;;
2022/06/07 07:04:27;;;;;;;5.5;4.5;;;;;;;;;;;;;
2022/06/07 07:06:52;;;;;;;5.9;4.9;;;;;;;;;;;;;
2022/06/07 07:09:18;;;;;;;5.9;5.1;;;;;;;;;;;;;
2022/06/07 07:11:43;;;;;;;5.6;4.4;;;;;;;;;;;;;
2022/06/07 07:14:09;;;;;;;4.8;4.3;;;;;;;;;;;;;
2022/06/07 07:16:34;;;;;;;5.5;4.5;;;;;;;;;;;;;
2022/06/07 07:19:00;;;;;;;6.1;4.8;;;;;;;;;;;;;
2022/06/07 07:21:24;;;;;;;6.8;5.3;;;;;;;;;;;;;
2022/06/07 07:23:50;;;;;;;6.3;5.2;;;;;;;;;;;;;
2022/06/07 07:26:15;;;;;;;5.8;5.2;;;;;;;;;;;;;
2022/06/07 07:28:40;;;;;;;6.2;5.6;;;;;;;;;;;;;
2022/06/07 07:31:05;;;;;;;5.9;5.3;;;;;;;;;;;;;
2022/06/07 07:33:31;;;;;;;6.8;5.3;;;;;;;;;;;;;
2022/06/07 07:35:56;;;;;;;4.4;4;;;;;;;;;;;;;
2022/06/07 07:38:23;;;;;;;5.2;4.4;;;;;;;;;;;;;
2022/06/07 07:40:48;;;;;;;4.9;4.4;;;;;;;;;;;;;
2022/06/07 07:43:14;;;;;;;5.6;4.1;;;;;;;;;;;;;
2022/06/07 07:45:40;;;;;;;5.8;4.6;;;;;;;;;;;;;
2022/06/07 07:48:05;;;;;;;4.5;4.1;;;;;;;;;;;;;
2022/06/07 07:50:30;;;;;;;5.2;3.7;;;;;;;;;;;;;
2022/06/07 07:52:56;;;;;;;4.3;3.9;;;;;;;;;;;;;
2022/06/07 07:55:21;;;;;;;4.7;3.3;;;;;;;;;;;;;
2022/06/07 07:57:47;;;;;;;5;3.9;;;;;;;;;;;;;
2022/06/07 08:00:12;;;;;;;3.8;3.3;;;;;;;;;;;;;
2022/06/07 08:02:37;;;;;;;4.4;2.8;;;;;;;;;;;;;
2022/06/07 08:05:02;;;;;;;3.8;2.1;;;;;;;;;;;;;
2022/06/07 08:07:27;;;;;;;1.9;1.8;;;;;;;;;;;;;
2022/06/07 08:09:53;;;;;;;2;1.7;;;;;;;;;;;;;
2022/06/07 08:12:18;;;;;;;1.6;1.5;;;;;;;;;;;;;
2022/06/07 08:14:44;;;;;;;2.2;1.7;;;;;;;;;;;;;
2022/06/07 08:17:09;;;;;;;1.8;1.4;;;;;;;;;;;;;
2022/06/07 08:19:34;;;;;;;2;1.8;;;;;;;;;;;;;
2022/06/07 08:21:59;;;;;;;1.8;1.7;;;;;;;;;;;;;
2022/06/07 08:24:25;;;;;;;3;1.8;;;;;;;;;;;;;
2022/06/07 08:26:52;;;;;;;1.3;1.2;;;;;;;;;;;;;
2022/06/07 08:29:15;;;;;;;1;1;;;;;;;;;;;;;
2022/06/07 08:31:40;;;;;;;1.2;0.8;;;;;;;;;;;;;
2022/06/07 08:38:55;;;;;;;1.2;1;;;;;;;;;;;;;
2022/06/07 08:41:20;;;;;;;0.7;0.7;;;;;;;;;;;;;
2022/06/07 08:43:46;;;;;;;1;0.9;;;;;;;;;;;;;
2022/06/07 08:46:11;;;;;;;1.9;1;;;;;;;;;;;;;
2022/06/07 08:48:36;;;;;;;1.8;1;;;;;;;;;;;;;
2022/06/07 08:51:01;;;;;;;1.2;1.1;;;;;;;;;;;;;
2022/06/07 08:53:27;;;;;;;0.9;0.9;;;;;;;;;;;;;
2022/06/07 08:55:52;;;;;;;0.9;0.9;;;;;;;;;;;;;
2022/06/07 08:58:17;;;;;;;0.7;0.7;;;;;;;;;;;;;
2022/06/07 09:00:42;;;;;;;0.8;0.8;;;;;;;;;;;;;
2022/06/07 09:03:07;;;;;;;1.7;0.8;;;;;;;;;;;;;
2022/06/07 09:05:33;;;;;;;0.7;0.6;;;;;;;;;;;;;
2022/06/07 09:07:58;;;;;;;0.7;0.7;;;;;;;;;;;;;
2022/06/07 09:12:48;;;;;;;0.5;0.5;;;;;;;;;;;;;
2022/06/07 09:15:13;;;;;;;0.9;0.9;;;;;;;;;;;;;
2022/06/07 09:17:38;;;;;;;0.7;0.7;;;;;;;;;;;;;
2022/06/07 09:20:03;;;;;;;0.7;0.7;;;;;;;;;;;;;
2022/06/07 09:22:29;;;;;;;0.7;0.6;;;;;;;;;;;;;
2022/06/07 09:24:54;;;;;;;0.6;0.5;;;;;;;;;;;;;
2022/06/07 09:27:19;;;;;;;0.5;0.5;;;;;;;;;;;;;
2022/06/07 09:29:44;;;;;;;0.6;0.6;;;;;;;;;;;;;
2022/06/07 09:32:09;;;;;;;0.6;0.6;;;;;;;;;;;;;
2022/06/07 09:34:34;;;;;;;0.7;0.7;;;;;;;;;;;;;
2022/06/07 09:36:59;;;;;;;1;0.8;;;;;;;;;;;;;
2022/06/07 09:39:24;;;;;;;0.5;0.5;;;;;;;;;;;;;
2022/06/07 09:41:51;;;;;;;0.6;0.5;;;;;;;;;;;;;
2022/06/07 09:44:16;;;;;;;1.1;0.8;;;;;;;;;;;;;
2022/06/07 09:46:43;;;;;;;0.8;0.8;;;;;;;;;;;;;
2022/06/07 09:49:07;;;;;;;0.6;0.6;;;;;;;;;;;;;
2022/06/07 09:51:33;;;;;;;0.8;0.8;;;;;;;;;;;;;
2022/06/07 09:53:58;;;;;;;0.5;0.5;;;;;;;;;;;;;
2022/06/07 09:56:25;;;;;;;0.6;0.5;;;;;;;;;;;;;
2022/06/07 09:58:50;;;;;;;0.5;0.5;;;;;;;;;;;;;
2022/06/07 10:01:15;;;;;;;0.5;0.5;;;;;;;;;;;;;
2022/06/07 10:03:40;;;;;;;1.3;0.7;;;;;;;;;;;;;
2022/06/07 10:06:05;;;;;;;0.5;0.5;;;;;;;;;;;;;
2022/06/07 10:08:30;;;;;;;0.6;0.5;;;;;;;;;;;;;
2022/06/07 10:10:56;;;;;;;0.5;0.5;;;;;;;;;;;;;
2022/06/07 10:13:21;;;;;;;0.6;0.6;;;;;;;;;;;;;
2022/06/07 10:15:47;;;;;;;0.6;0.6;;;;;;;;;;;;;
2022/06/07 10:18:12;;;;;;;1;0.6;;;;;;;;;;;;;
2022/06/07 10:20:36;;;;;;;0.5;0.5;;;;;;;;;;;;;
2022/06/07 10:23:01;;;;;;;0.7;0.7;;;;;;;;;;;;;
2022/06/07 10:25:26;;;;;;;0.6;0.6;;;;;;;;;;;;;
2022/06/07 10:27:52;;;;;;;0.5;0.5;;;;;;;;;;;;;
2022/06/07 10:30:17;;;;;;;0.9;0.6;;;;;;;;;;;;;
2022/06/07 10:32:42;;;;;;;0.6;0.6;;;;;;;;;;;;;
2022/06/07 10:35:07;;;;;;;0.6;0.6;;;;;;;;;;;;;
2022/06/07 10:37:32;;;;;;;0.6;0.6;;;;;;;;;;;;;
2022/06/07 10:39:57;;;;;;;0.7;0.7;;;;;;;;;;;;;
2022/06/07 10:42:23;;;;;;;1.1;0.7;;;;;;;;;;;;;
2022/06/07 10:44:48;;;;;;;1;0.6;;;;;;;;;;;;;
2022/06/07 10:47:13;;;;;;;1.2;0.8;;;;;;;;;;;;;
2022/06/07 10:49:38;;;;;;;0.8;0.8;;;;;;;;;;;;;
2022/06/07 10:54:28;;;;;;;0.8;0.8;;;;;;;;;;;;;
2022/06/07 10:56:54;;;;;;;0.7;0.7;;;;;;;;;;;;;
2022/06/07 10:59:19;;;;;;;0.9;0.7;;;;;;;;;;;;;
2022/06/07 11:01:44;;;;;;;0.8;0.8;;;;;;;;;;;;;
2022/06/07 11:04:10;;;;;;;0.8;0.8;;;;;;;;;;;;;
2022/06/07 11:11:26;;;;;;;1.2;0.7;;;;;;;;;;;;;
2022/06/07 11:13:51;;;;;;;0.9;0.6;;;;;;;;;;;;;
2022/06/07 11:16:16;;;;;;;0.6;0.6;;;;;;;;;;;;;
2022/06/07 11:18:41;;;;;;;0.8;0.7;;;;;;;;;;;;;
2022/06/07 11:21:13;;;;;;;0.8;0.8;;;;;;;;;;;;;
2022/06/07 11:23:38;;;;;;;0.8;0.7;;;;;;;;;;;;;
2022/06/07 11:26:04;;;;;;;0.6;0.6;;;;;;;;;;;;;
2022/06/07 11:28:29;;;;;;;0.8;0.8;;;;;;;;;;;;;
2022/06/07 11:30:53;;;;;;;1.1;1;;;;;;;;;;;;;
2022/06/07 11:33:19;;;;;;;0.9;0.9;;;;;;;;;;;;;
2022/06/07 11:35:47;;;;;;;0.9;0.9;;;;;;;;;;;;;
2022/06/07 11:38:12;;;;;;;0.9;0.9;;;;;;;;;;;;;
2022/06/07 11:40:37;;;;;;;0.9;0.9;;;;;;;;;;;;;
2022/06/07 11:43:02;;;;;;;0.9;0.9;;;;;;;;;;;;;
2022/06/07 11:45:28;;;;;;;0.7;0.7;;;;;;;;;;;;;
2022/06/07 11:47:54;;;;;;;0.8;0.8;;;;;;;;;;;;;
2022/06/07 11:50:19;;;;;;;0.7;0.7;;;;;;;;;;;;;
2022/06/07 11:52:44;;;;;;;0.6;0.6;;;;;;;;;;;;;
2022/06/07 11:55:10;;;;;;;0.9;0.9;;;;;;;;;;;;;
2022/06/07 11:57:35;;;;;;;0.7;0.7;;;;;;;;;;;;;
2022/06/07 12:00:00;;;;;;;1;1;;;;;;;;;;;;;
2022/06/07 12:02:30;;;;;;;1;0.9;;;;;;;;;;;;;
2022/06/07 12:04:54;;;;;;;1.1;1;;;;;;;;;;;;;
2022/06/07 12:07:21;;;;;;;2.7;2.5;;;;;;;;;;;;;
2022/06/07 12:09:47;;;;;;;1.1;1;;;;;;;;;;;;;
2022/06/07 12:12:11;;;;;;;3.5;1.8;;;;;;;;;;;;;
2022/06/07 12:14:36;;;;;;;1;1;;;;;;;;;;;;;
2022/06/07 12:17:03;;;;;;;1;0.9;;;;;;;;;;;;;
2022/06/07 12:19:28;;;;;;;2;0.7;;;;;;;;;;;;;
2022/06/07 12:21:54;;;;;;;1.2;1.1;;;;;;;;;;;;;
2022/06/07 12:24:20;;;;;;;1.1;1;;;;;;;;;;;;;
2022/06/07 12:26:46;;;;;;;1.5;1.4;;;;;;;;;;;;;
2022/06/07 12:29:11;;;;;;;1.1;0.9;;;;;;;;;;;;;
2022/06/07 12:31:37;;;;;;;1.8;1;;;;;;;;;;;;;
2022/06/07 12:34:01;;;;;;;1;1;;;;;;;;;;;;;
2022/06/07 12:36:27;;;;;;;3.7;1;;;;;;;;;;;;;
2022/06/07 12:38:52;;;;;;;1.4;1.1;;;;;;;;;;;;;
2022/06/07 12:41:18;;;;;;;1.3;1.1;;;;;;;;;;;;;
2022/06/07 12:43:43;;;;;;;1.1;1;;;;;;;;;;;;;
2022/06/07 12:46:09;;;;;;;0.9;0.9;;;;;;;;;;;;;
2022/06/07 12:48:34;;;;;;;0.9;0.9;;;;;;;;;;;;;
2022/06/07 12:51:00;;;;;;;0.8;0.8;;;;;;;;;;;;;
2022/06/07 12:53:26;;;;;;;1.2;1.1;;;;;;;;;;;;;
2022/06/07 12:55:51;;;;;;;0.8;0.8;;;;;;;;;;;;;
2022/06/07 12:58:18;;;;;;;1.2;0.9;;;;;;;;;;;;;
2022/06/07 13:00:41;;;;;;;1.4;0.9;;;;;;;;;;;;;
2022/06/07 13:03:08;;;;;;;0.9;0.9;;;;;;;;;;;;;
2022/06/07 13:05:33;;;;;;;0.9;0.9;;;;;;;;;;;;;
2022/06/07 13:07:58;;;;;;;1.1;1;;;;;;;;;;;;;
2022/06/07 13:10:23;;;;;;;0.8;0.8;;;;;;;;;;;;;
2022/06/07 13:12:49;;;;;;;0.9;0.9;;;;;;;;;;;;;
2022/06/07 13:15:14;;;;;;;1;0.9;;;;;;;;;;;;;
2022/06/07 13:17:39;;;;;;;1.7;0.9;;;;;;;;;;;;;
2022/06/07 13:20:04;;;;;;;0.8;0.8;;;;;;;;;;;;;
2022/06/07 13:22:29;;;;;;;0.7;0.7;;;;;;;;;;;;;
2022/06/07 13:24:56;;;;;;;0.8;0.8;;;;;;;;;;;;;
2022/06/07 13:27:20;;;;;;;1.1;0.8;;;;;;;;;;;;;
2022/06/07 13:29:45;;;;;;;1.2;0.8;;;;;;;;;;;;;
2022/06/07 13:32:10;;;;;;;0.8;0.8;;;;;;;;;;;;;
2022/06/07 13:34:35;;;;;;;1.5;0.8;;;;;;;;;;;;;
2022/06/07 13:37:01;;;;;;;1;1;;;;;;;;;;;;;
2022/06/07 13:39:26;;;;;;;1.1;0.9;;;;;;;;;;;;;
2022/06/07 13:41:51;;;;;;;1.1;1;;;;;;;;;;;;;
2022/06/07 13:44:16;;;;;;;0.8;0.8;;;;;;;;;;;;;
2022/06/07 13:46:41;;;;;;;0.9;0.9;;;;;;;;;;;;;
2022/06/07 13:54:00;;;;;;;1.9;1.1;;;;;;;;;;;;;
2022/06/07 13:56:22;;;;;;;1.4;0.9;;;;;;;;;;;;;
2022/06/07 13:58:47;;;;;;;0.9;0.9;;;;;;;;;;;;;
2022/06/07 14:01:12;;;;;;;1.1;1;;;;;;;;;;;;;
2022/06/07 14:03:38;;;;;;;1.1;1.1;;;;;;;;;;;;;
2022/06/07 14:06:03;;;;;;;1;0.9;;;;;;;;;;;;;
2022/06/07 14:08:28;;;;;;;1;1;;;;;;;;;;;;;
2022/06/07 14:10:53;;;;;;;1.1;1.1;;;;;;;;;;;;;
2022/06/07 14:13:20;;;;;;;1.3;1.1;;;;;;;;;;;;;
2022/06/07 14:15:45;;;;;;;1.8;0.9;;;;;;;;;;;;;
2022/06/07 14:18:11;;;;;;;2.5;1.3;;;;;;;;;;;;;
2022/06/07 14:20:36;;;;;;;0.9;0.9;;;;;;;;;;;;;
2022/06/07 14:23:02;;;;;;;1.3;1.2;;;;;;;;;;;;;
2022/06/07 14:25:27;;;;;;;1.6;1;;;;;;;;;;;;;
2022/06/07 14:27:52;;;;;;;1.7;1.2;;;;;;;;;;;;;
2022/06/07 14:30:17;;;;;;;1;0.9;;;;;;;;;;;;;
2022/06/07 14:32:45;;;;;;;0.6;0.6;;;;;;;;;;;;;
2022/06/07 14:35:10;;;;;;;0.8;0.8;;;;;;;;;;;;;
2022/06/07 14:37:36;;;;;;;0.9;0.9;;;;;;;;;;;;;
2022/06/07 14:40:00;;;;;;;0.7;0.7;;;;;;;;;;;;;
2022/06/07 14:42:26;;;;;;;2;1.1;;;;;;;;;;;;;
2022/06/07 14:44:51;;;;;;;1.4;1.3;;;;;;;;;;;;;
2022/06/07 14:47:16;;;;;;;1.4;1.1;;;;;;;;;;;;;
2022/06/07 14:49:42;;;;;;;1.3;1.2;;;;;;;;;;;;;
2022/06/07 14:52:07;;;;;;;1.7;1.1;;;;;;;;;;;;;
2022/06/07 14:54:33;;;;;;;1.2;1.1;;;;;;;;;;;;;
2022/06/07 14:57:00;;;;;;;1.3;1.1;;;;;;;;;;;;;
2022/06/07 14:59:24;;;;;;;1.1;1;;;;;;;;;;;;;
2022/06/07 15:01:51;;;;;;;1.9;1.2;;;;;;;;;;;;;
2022/06/07 15:04:15;;;;;;;2.4;1.1;;;;;;;;;;;;;
2022/06/07 15:06:41;;;;;;;1.2;1.1;;;;;;;;;;;;;
2022/06/07 15:09:06;;;;;;;1.2;1.1;;;;;;;;;;;;;
2022/06/07 15:11:32;;;;;;;1.1;0.7;;;;;;;;;;;;;
2022/06/07 15:13:57;;;;;;;1.1;0.9;;;;;;;;;;;;;
2022/06/07 15:16:23;;;;;;;1.1;1;;;;;;;;;;;;;
2022/06/07 15:18:50;;;;;;;1.1;1;;;;;;;;;;;;;
2022/06/07 15:21:14;;;;;;;0.9;0.9;;;;;;;;;;;;;
2022/06/07 15:23:39;;;;;;;0.8;0.8;;;;;;;;;;;;;
2022/06/07 15:26:04;;;;;;;0.9;0.9;;;;;;;;;;;;;
2022/06/07 15:28:29;;;;;;;0.8;0.8;;;;;;;;;;;;;
2022/06/07 15:30:54;;;;;;;1.8;1.2;;;;;;;;;;;;;
2022/06/07 15:33:20;;;;;;;1.2;1.1;;;;;;;;;;;;;
2022/06/07 15:35:45;;;;;;;1;1;;;;;;;;;;;;;
2022/06/07 15:38:10;;;;;;;2;1.2;;;;;;;;;;;;;
2022/06/07 15:40:35;;;;;;;1;0.9;;;;;;;;;;;;;
2022/06/07 15:43:01;;;;;;;1.3;1.2;;;;;;;;;;;;;
2022/06/07 15:45:27;;;;;;;1.2;1.1;;;;;;;;;;;;;
2022/06/07 15:48:54;;;;;;;1.3;1.1;;;;;;;;;;;;;
2022/06/07 15:51:03;;;;;;;1.4;1.3;;;;;;;;;;;;;
2022/06/07 15:53:29;;;;;;;1.6;1.4;;;;;;;;;;;;;
2022/06/07 15:55:54;;;;;;;1.2;1.1;;;;;;;;;;;;;
2022/06/07 16:00:45;;;;;;;1.2;1.1;;;;;;;;;;;;;
2022/06/07 16:03:11;;;;;;;1.3;1.2;;;;;;;;;;;;;
2022/06/07 16:05:37;;;;;;;1.2;1.1;;;;;;;;;;;;;
2022/06/07 16:08:01;;;;;;;2.7;1.4;;;;;;;;;;;;;
2022/06/07 16:10:27;;;;;;;1.4;1.3;;;;;;;;;;;;;
2022/06/07 16:12:51;;;;;;;1.6;1.3;;;;;;;;;;;;;
2022/06/07 16:15:17;;;;;;;2.6;1.2;;;;;;;;;;;;;
2022/06/07 16:17:41;;;;;;;1.2;1.1;;;;;;;;;;;;;
2022/06/07 16:20:06;;;;;;;1.3;1.2;;;;;;;;;;;;;
2022/06/07 16:22:33;;;;;;;1.4;1.3;;;;;;;;;;;;;
2022/06/07 16:24:56;;;;;;;2.2;1.3;;;;;;;;;;;;;
2022/06/07 16:34:37;;;;;;;1.3;1.2;;;;;;;;;;;;;
2022/06/07 16:37:04;;;;;;;1.2;1.1;;;;;;;;;;;;;
2022/06/07 16:39:29;;;;;;;1.2;1.1;;;;;;;;;;;;;
2022/06/07 16:41:55;;;;;;;1.2;1.1;;;;;;;;;;;;;
2022/06/07 16:44:19;;;;;;;1.1;1;;;;;;;;;;;;;
2022/06/07 16:46:45;;;;;;;0.9;0.9;;;;;;;;;;;;;
2022/06/07 16:49:10;;;;;;;1.1;1;;;;;;;;;;;;;
2022/06/07 16:51:35;;;;;;;1.3;1.2;;;;;;;;;;;;;
2022/06/07 16:54:00;;;;;;;1.3;0.9;;;;;;;;;;;;;
2022/06/07 16:56:26;;;;;;;1.3;1.2;;;;;;;;;;;;;
2022/06/07 16:58:50;;;;;;;1.1;1.1;;;;;;;;;;;;;
2022/06/07 17:01:17;;;;;;;1;1;;;;;;;;;;;;;
2022/06/07 17:03:42;;;;;;;1.3;1.2;;;;;;;;;;;;;
2022/06/07 17:06:08;;;;;;;1.2;1.1;;;;;;;;;;;;;
2022/06/07 17:08:33;;;;;;;1.5;1.4;;;;;;;;;;;;;
2022/06/07 17:10:58;;;;;;;2.1;1.3;;;;;;;;;;;;;
2022/06/07 17:13:35;;;;;;;2.1;1.8;;;;;;;;;;;;;
2022/06/07 17:15:48;;;;;;;1.4;1.3;;;;;;;;;;;;;
2022/06/07 17:18:13;;;;;;;1.6;1.4;;;;;;;;;;;;;
2022/06/07 17:20:39;;;;;;;2.3;1.3;;;;;;;;;;;;;
2022/06/07 17:23:04;;;;;;;2.2;1.6;;;;;;;;;;;;;
2022/06/07 17:25:29;;;;;;;2.4;1.5;;;;;;;;;;;;;
2022/06/07 17:27:54;;;;;;;1.6;1.3;;;;;;;;;;;;;
2022/06/07 17:30:19;;;;;;;2;1.3;;;;;;;;;;;;;
2022/06/07 17:32:44;;;;;;;2;1.3;;;;;;;;;;;;;
2022/06/07 17:35:10;;;;;;;1.6;1.2;;;;;;;;;;;;;
2022/06/07 17:37:36;;;;;;;1.6;1;;;;;;;;;;;;;
2022/06/07 17:40:01;;;;;;;1.2;1.1;;;;;;;;;;;;;
2022/06/07 17:42:26;;;;;;;1.1;1;;;;;;;;;;;;;
2022/06/07 17:44:53;;;;;;;1.1;0.9;;;;;;;;;;;;;
2022/06/07 17:47:17;;;;;;;1.6;0.8;;;;;;;;;;;;;
2022/06/07 17:49:44;;;;;;;0.9;0.8;;;;;;;;;;;;;
2022/06/07 17:52:09;;;;;;;1.8;0.8;;;;;;;;;;;;;
2022/06/07 17:54:34;;;;;;;1.7;0.9;;;;;;;;;;;;;
2022/06/07 17:56:59;;;;;;;1.6;0.8;;;;;;;;;;;;;
2022/06/07 17:59:26;;;;;;;0.9;0.7;;;;;;;;;;;;;
2022/06/07 18:01:51;;;;;;;1;0.7;;;;;;;;;;;;;
2022/06/07 18:04:16;;;;;;;1.5;0.8;;;;;;;;;;;;;
2022/06/07 18:06:41;;;;;;;1.5;1;;;;;;;;;;;;;
2022/06/07 18:09:06;;;;;;;1.1;1;;;;;;;;;;;;;
2022/06/07 18:11:31;;;;;;;1.7;1.3;;;;;;;;;;;;;
2022/06/07 18:13:56;;;;;;;1.7;1.6;;;;;;;;;;;;;
2022/06/07 18:16:22;;;;;;;1.8;1.3;;;;;;;;;;;;;
2022/06/07 18:18:47;;;;;;;2.2;1.4;;;;;;;;;;;;;
2022/06/07 18:21:14;;;;;;;1.3;1.2;;;;;;;;;;;;;
2022/06/07 18:23:39;;;;;;;1.5;1.1;;;;;;;;;;;;;
2022/06/07 18:26:06;;;;;;;1.4;1;;;;;;;;;;;;;
2022/06/07 18:28:30;;;;;;;2.1;1.1;;;;;;;;;;;;;
2022/06/07 18:30:55;;;;;;;2.8;1.7;;;;;;;;;;;;;
2022/06/07 18:33:21;;;;;;;3.1;1.7;;;;;;;;;;;;;
2022/06/07 18:35:47;;;;;;;1.5;1.2;;;;;;;;;;;;;
2022/06/07 18:38:13;;;;;;;2.2;1.5;;;;;;;;;;;;;
2022/06/07 18:40:38;;;;;;;1.5;1.1;;;;;;;;;;;;;